Davisville, MO (65456)

9:42 AM CST on March 05, 2015 (GMT -0600)
APRSWXNET Steelville MO US | Change Station
CLOSE
Current Station
Personal Weather Station
Location: Wesco, MO
Elevation: 1030 ft
Nearby Weather Stations

Elev 1030 ft 37.86 °N, 91.35 °W | Updated 42 minutes ago

Clear
Clear
21 °F
Feels Like 21 °F
N
3
Wind Variable Wind from North
Gusts 9.0 mph

Today
High -- | Low -- °F
--% Chance of Precip.
Yesterday
High -- | Low -- °F
Precip. -- in
6:30 AM 6:01 PM
Full, 100% visible
Pressure 30.50 in
Visibility 10.0 miles
Clouds Clear
Windchill 21 °F
Dew Point 11 °F
Humidity 66%
Rainfall in
Snow Depth Not available.
UV 4 out of 12
Pollen 2.50 out of 12
Air Quality Not available.
Flu Activity Not available.
METAR KFAM 051535Z AUTO 36006KT 10SM CLR M07/M14 A3050 RMK AO1

More Conditions Fewer Conditions

Pressure 30.50 in
Visibility 10.0 miles
Clouds Clear
Windchill 21 °F
Dew Point 11 °F
Humidity 66%
Rainfall in
Snow Depth Not available.
UV 4 out of 12
Pollen 2.50 out of 12
Air Quality Not available.
Flu Activity Not available.
METAR KFAM 051535Z AUTO 36006KT 10SM CLR M07/M14 A3050 RMK AO1

More Conditions Fewer Conditions

10-Day Weather Forecast

Almanac

Astronomy

Mar. 05, 2015 Rise Set
Actual Time
Civil Twilight
Nautical Twilight
Astronomical Twilight
Moon
Length of Visible Light
Length of Day
Tomorrow will be .
, % of the Moon is Illuminated

Today's Extremes

State Highs State Lows

Community

WunderPhotos

Upload Photos

1,802,825 photos uploaded!

WunderBlogs® & News

Nearby

Air Quality

  Air Quality AQ Index Pollutant
Not available.

Snow Depth

Station Depth Elevation

Earthquake Activity

City Distance Mag. Time & Date
Minimum magnitude displayed is 2.5.

Coastal Water Temperatures

Place Temperature

Nearby Weather Stations